sensor_id;sensor_type;location;lat;lon;timestamp;P1;durP1;ratioP1;P2;durP2;ratioP2
3274;SDS011;1649;53.672;10.064;2023-03-24T00:00:46;21.02;;;10.73;;
3274;SDS011;1649;53.672;10.064;2023-03-24T00:03:12;19.93;;;9.40;;
3274;SDS011;1649;53.672;10.064;2023-03-24T00:05:41;16.53;;;8.10;;
3274;SDS011;1649;53.672;10.064;2023-03-24T00:08:07;15.87;;;8.53;;
3274;SDS011;1649;53.672;10.064;2023-03-24T00:10:34;11.33;;;6.60;;
3274;SDS011;1649;53.672;10.064;2023-03-24T00:13:00;12.50;;;8.40;;
3274;SDS011;1649;53.672;10.064;2023-03-24T00:15:26;14.20;;;9.00;;
3274;SDS011;1649;53.672;10.064;2023-03-24T00:17:51;13.33;;;8.33;;
3274;SDS011;1649;53.672;10.064;2023-03-24T00:20:20;14.77;;;8.10;;
3274;SDS011;1649;53.672;10.064;2023-03-24T00:22:48;16.93;;;8.63;;
3274;SDS011;1649;53.672;10.064;2023-03-24T00:25:19;16.70;;;8.67;;
3274;SDS011;1649;53.672;10.064;2023-03-24T00:27:51;15.83;;;8.50;;
3274;SDS011;1649;53.672;10.064;2023-03-24T00:30:18;12.37;;;7.67;;
3274;SDS011;1649;53.672;10.064;2023-03-24T00:32:44;15.50;;;8.20;;
3274;SDS011;1649;53.672;10.064;2023-03-24T00:35:10;15.40;;;8.20;;
3274;SDS011;1649;53.672;10.064;2023-03-24T00:37:38;14.50;;;7.60;;
3274;SDS011;1649;53.672;10.064;2023-03-24T00:40:06;13.13;;;8.07;;
3274;SDS011;1649;53.672;10.064;2023-03-24T00:42:36;16.97;;;8.20;;
3274;SDS011;1649;53.672;10.064;2023-03-24T00:45:03;11.33;;;7.00;;
3274;SDS011;1649;53.672;10.064;2023-03-24T00:47:31;14.23;;;7.40;;
3274;SDS011;1649;53.672;10.064;2023-03-24T00:50:00;11.97;;;7.70;;
3274;SDS011;1649;53.672;10.064;2023-03-24T00:52:27;13.33;;;6.83;;
3274;SDS011;1649;53.672;10.064;2023-03-24T00:54:57;14.57;;;6.33;;
3274;SDS011;1649;53.672;10.064;2023-03-24T00:57:25;15.07;;;6.93;;
3274;SDS011;1649;53.672;10.064;2023-03-24T00:59:54;13.73;;;8.07;;
3274;SDS011;1649;53.672;10.064;2023-03-24T01:02:24;12.13;;;7.47;;
3274;SDS011;1649;53.672;10.064;2023-03-24T01:04:52;17.03;;;7.17;;
3274;SDS011;1649;53.672;10.064;2023-03-24T01:07:20;13.67;;;5.93;;
3274;SDS011;1649;53.672;10.064;2023-03-24T01:09:46;13.13;;;6.50;;
3274;SDS011;1649;53.672;10.064;2023-03-24T01:12:21;12.03;;;6.20;;
3274;SDS011;1649;53.672;10.064;2023-03-24T01:14:48;13.27;;;7.20;;
3274;SDS011;1649;53.672;10.064;2023-03-24T01:17:13;13.60;;;6.50;;
3274;SDS011;1649;53.672;10.064;2023-03-24T01:19:39;12.80;;;6.47;;
3274;SDS011;1649;53.672;10.064;2023-03-24T01:22:05;12.90;;;6.90;;
3274;SDS011;1649;53.672;10.064;2023-03-24T01:24:31;10.53;;;6.80;;
3274;SDS011;1649;53.672;10.064;2023-03-24T01:26:57;9.80;;;5.53;;
3274;SDS011;1649;53.672;10.064;2023-03-24T01:29:23;9.87;;;5.60;;
3274;SDS011;1649;53.672;10.064;2023-03-24T01:31:48;9.53;;;4.57;;
3274;SDS011;1649;53.672;10.064;2023-03-24T01:34:14;10.50;;;6.30;;
3274;SDS011;1649;53.672;10.064;2023-03-24T01:36:39;10.80;;;5.90;;
3274;SDS011;1649;53.672;10.064;2023-03-24T01:39:05;12.80;;;7.13;;
3274;SDS011;1649;53.672;10.064;2023-03-24T01:41:32;13.07;;;6.17;;
3274;SDS011;1649;53.672;10.064;2023-03-24T01:44:00;9.90;;;5.30;;
3274;SDS011;1649;53.672;10.064;2023-03-24T01:46:46;15.13;;;6.87;;
3274;SDS011;1649;53.672;10.064;2023-03-24T01:49:11;10.90;;;6.93;;
3274;SDS011;1649;53.672;10.064;2023-03-24T01:51:39;15.07;;;7.10;;
3274;SDS011;1649;53.672;10.064;2023-03-24T01:57:06;10.13;;;6.10;;
3274;SDS011;1649;53.672;10.064;2023-03-24T01:59:36;18.47;;;6.70;;
3274;SDS011;1649;53.672;10.064;2023-03-24T02:02:04;12.83;;;6.13;;
3274;SDS011;1649;53.672;10.064;2023-03-24T02:04:31;11.30;;;5.97;;
3274;SDS011;1649;53.672;10.064;2023-03-24T02:07:04;13.40;;;7.13;;
3274;SDS011;1649;53.672;10.064;2023-03-24T02:09:42;10.23;;;5.97;;
3274;SDS011;1649;53.672;10.064;2023-03-24T02:12:08;12.50;;;6.60;;
3274;SDS011;1649;53.672;10.064;2023-03-24T02:14:34;10.93;;;6.40;;
3274;SDS011;1649;53.672;10.064;2023-03-24T02:17:10;12.10;;;6.80;;
3274;SDS011;1649;53.672;10.064;2023-03-24T02:19:52;13.77;;;6.37;;
3274;SDS011;1649;53.672;10.064;2023-03-24T02:22:47;12.83;;;5.67;;
3274;SDS011;1649;53.672;10.064;2023-03-24T02:25:50;11.87;;;6.70;;
3274;SDS011;1649;53.672;10.064;2023-03-24T02:34:30;10.43;;;6.10;;
3274;SDS011;1649;53.672;10.064;2023-03-24T02:37:32;17.00;;;6.57;;
3274;SDS011;1649;53.672;10.064;2023-03-24T02:48:55;11.80;;;5.90;;
3274;SDS011;1649;53.672;10.064;2023-03-24T02:51:47;12.77;;;7.10;;
3274;SDS011;1649;53.672;10.064;2023-03-24T02:57:04;12.83;;;5.70;;
3274;SDS011;1649;53.672;10.064;2023-03-24T02:59:44;14.53;;;7.40;;
3274;SDS011;1649;53.672;10.064;2023-03-24T03:02:13;14.00;;;7.23;;
3274;SDS011;1649;53.672;10.064;2023-03-24T03:04:47;10.90;;;4.20;;
3274;SDS011;1649;53.672;10.064;2023-03-24T03:07:18;11.10;;;6.07;;
3274;SDS011;1649;53.672;10.064;2023-03-24T03:09:49;10.30;;;5.60;;
3274;SDS011;1649;53.672;10.064;2023-03-24T03:12:21;13.97;;;7.53;;
3274;SDS011;1649;53.672;10.064;2023-03-24T03:14:50;13.70;;;8.30;;
3274;SDS011;1649;53.672;10.064;2023-03-24T03:17:20;18.00;;;8.67;;
3274;SDS011;1649;53.672;10.064;2023-03-24T03:19:53;15.40;;;6.70;;
3274;SDS011;1649;53.672;10.064;2023-03-24T03:22:23;14.50;;;7.90;;
3274;SDS011;1649;53.672;10.064;2023-03-24T03:24:53;14.87;;;7.90;;
3274;SDS011;1649;53.672;10.064;2023-03-24T03:27:23;12.40;;;8.00;;
3274;SDS011;1649;53.672;10.064;2023-03-24T03:30:02;11.80;;;7.10;;
3274;SDS011;1649;53.672;10.064;2023-03-24T03:32:32;13.47;;;6.83;;
3274;SDS011;1649;53.672;10.064;2023-03-24T03:35:16;11.47;;;6.97;;
3274;SDS011;1649;53.672;10.064;2023-03-24T03:40:35;13.00;;;8.60;;
3274;SDS011;1649;53.672;10.064;2023-03-24T03:43:23;11.27;;;7.00;;
3274;SDS011;1649;53.672;10.064;2023-03-24T03:45:49;14.27;;;9.13;;
3274;SDS011;1649;53.672;10.064;2023-03-24T03:48:15;12.70;;;8.23;;
3274;SDS011;1649;53.672;10.064;2023-03-24T03:50:41;12.83;;;8.30;;
3274;SDS011;1649;53.672;10.064;2023-03-24T03:53:07;16.00;;;7.77;;
3274;SDS011;1649;53.672;10.064;2023-03-24T03:55:35;11.43;;;6.10;;
3274;SDS011;1649;53.672;10.064;2023-03-24T03:58:01;17.63;;;9.30;;
3274;SDS011;1649;53.672;10.064;2023-03-24T04:00:28;14.47;;;8.77;;
3274;SDS011;1649;53.672;10.064;2023-03-24T04:05:35;16.47;;;8.23;;
3274;SDS011;1649;53.672;10.064;2023-03-24T04:22:36;13.50;;;8.47;;
3274;SDS011;1649;53.672;10.064;2023-03-24T04:28:18;14.07;;;8.30;;
3274;SDS011;1649;53.672;10.064;2023-03-24T04:30:52;15.50;;;7.50;;
3274;SDS011;1649;53.672;10.064;2023-03-24T04:33:45;15.40;;;9.53;;
3274;SDS011;1649;53.672;10.064;2023-03-24T04:38:52;15.00;;;9.60;;
3274;SDS011;1649;53.672;10.064;2023-03-24T04:41:21;15.80;;;9.90;;
3274;SDS011;1649;53.672;10.064;2023-03-24T04:43:49;17.63;;;8.33;;
3274;SDS011;1649;53.672;10.064;2023-03-24T04:46:17;14.60;;;8.90;;
3274;SDS011;1649;53.672;10.064;2023-03-24T04:48:46;13.27;;;8.60;;
3274;SDS011;1649;53.672;10.064;2023-03-24T04:51:15;13.70;;;6.87;;
3274;SDS011;1649;53.672;10.064;2023-03-24T04:53:46;13.17;;;9.10;;
3274;SDS011;1649;53.672;10.064;2023-03-24T04:58:53;14.27;;;9.33;;
3274;SDS011;1649;53.672;10.064;2023-03-24T05:01:18;14.30;;;9.03;;
3274;SDS011;1649;53.672;10.064;2023-03-24T05:03:47;14.60;;;9.40;;
3274;SDS011;1649;53.672;10.064;2023-03-24T05:06:13;12.83;;;8.80;;
3274;SDS011;1649;53.672;10.064;2023-03-24T05:08:39;12.13;;;6.70;;
3274;SDS011;1649;53.672;10.064;2023-03-24T05:11:05;12.27;;;8.10;;
3274;SDS011;1649;53.672;10.064;2023-03-24T05:13:31;13.60;;;7.20;;
3274;SDS011;1649;53.672;10.064;2023-03-24T05:15:56;14.00;;;9.07;;
3274;SDS011;1649;53.672;10.064;2023-03-24T05:18:22;14.70;;;9.70;;
3274;SDS011;1649;53.672;10.064;2023-03-24T05:20:48;12.60;;;8.20;;
3274;SDS011;1649;53.672;10.064;2023-03-24T05:23:13;14.90;;;9.20;;
3274;SDS011;1649;53.672;10.064;2023-03-24T05:25:39;12.87;;;8.60;;
3274;SDS011;1649;53.672;10.064;2023-03-24T05:28:04;16.67;;;10.33;;
3274;SDS011;1649;53.672;10.064;2023-03-24T05:30:30;11.70;;;8.00;;
3274;SDS011;1649;53.672;10.064;2023-03-24T05:32:56;14.27;;;9.80;;
3274;SDS011;1649;53.672;10.064;2023-03-24T05:35:22;10.47;;;7.30;;
3274;SDS011;1649;53.672;10.064;2023-03-24T05:37:49;14.33;;;9.47;;
3274;SDS011;1649;53.672;10.064;2023-03-24T05:40:15;12.80;;;8.80;;
3274;SDS011;1649;53.672;10.064;2023-03-24T05:42:40;13.20;;;9.27;;
3274;SDS011;1649;53.672;10.064;2023-03-24T05:45:06;14.10;;;9.40;;
3274;SDS011;1649;53.672;10.064;2023-03-24T05:47:33;12.87;;;7.80;;
3274;SDS011;1649;53.672;10.064;2023-03-24T05:49:58;13.50;;;8.60;;
3274;SDS011;1649;53.672;10.064;2023-03-24T05:52:24;13.50;;;8.53;;
3274;SDS011;1649;53.672;10.064;2023-03-24T05:54:50;12.00;;;8.00;;
3274;SDS011;1649;53.672;10.064;2023-03-24T05:57:16;11.53;;;8.27;;
3274;SDS011;1649;53.672;10.064;2023-03-24T05:59:42;11.57;;;9.17;;
3274;SDS011;1649;53.672;10.064;2023-03-24T06:02:08;9.20;;;5.47;;
3274;SDS011;1649;53.672;10.064;2023-03-24T06:04:33;13.80;;;9.60;;
3274;SDS011;1649;53.672;10.064;2023-03-24T06:06:59;13.27;;;9.67;;
3274;SDS011;1649;53.672;10.064;2023-03-24T06:09:27;11.07;;;6.03;;
3274;SDS011;1649;53.672;10.064;2023-03-24T06:11:59;11.23;;;8.47;;
3274;SDS011;1649;53.672;10.064;2023-03-24T06:14:25;13.00;;;8.07;;
3274;SDS011;1649;53.672;10.064;2023-03-24T06:16:51;14.27;;;9.27;;
3274;SDS011;1649;53.672;10.064;2023-03-24T06:19:17;12.17;;;8.70;;
3274;SDS011;1649;53.672;10.064;2023-03-24T06:21:46;13.37;;;9.13;;
3274;SDS011;1649;53.672;10.064;2023-03-24T06:24:14;12.40;;;8.43;;
3274;SDS011;1649;53.672;10.064;2023-03-24T06:26:41;12.17;;;8.93;;
3274;SDS011;1649;53.672;10.064;2023-03-24T06:29:08;11.40;;;8.07;;
3274;SDS011;1649;53.672;10.064;2023-03-24T06:31:34;13.13;;;8.73;;
3274;SDS011;1649;53.672;10.064;2023-03-24T06:34:01;14.00;;;6.50;;
3274;SDS011;1649;53.672;10.064;2023-03-24T06:36:27;11.40;;;8.50;;
3274;SDS011;1649;53.672;10.064;2023-03-24T06:38:53;11.87;;;7.80;;
3274;SDS011;1649;53.672;10.064;2023-03-24T06:41:19;10.33;;;6.57;;
3274;SDS011;1649;53.672;10.064;2023-03-24T06:43:44;9.80;;;7.37;;
3274;SDS011;1649;53.672;10.064;2023-03-24T06:46:10;10.37;;;6.63;;
3274;SDS011;1649;53.672;10.064;2023-03-24T06:48:35;15.53;;;6.90;;
3274;SDS011;1649;53.672;10.064;2023-03-24T06:51:02;9.60;;;7.10;;
3274;SDS011;1649;53.672;10.064;2023-03-24T06:53:28;11.07;;;6.60;;
3274;SDS011;1649;53.672;10.064;2023-03-24T06:55:53;8.87;;;6.30;;
3274;SDS011;1649;53.672;10.064;2023-03-24T06:58:19;9.17;;;4.90;;
3274;SDS011;1649;53.672;10.064;2023-03-24T07:00:45;10.83;;;6.20;;
3274;SDS011;1649;53.672;10.064;2023-03-24T07:03:11;9.13;;;5.17;;
3274;SDS011;1649;53.672;10.064;2023-03-24T07:05:41;10.57;;;6.63;;
3274;SDS011;1649;53.672;10.064;2023-03-24T07:08:07;9.93;;;6.40;;
3274;SDS011;1649;53.672;10.064;2023-03-24T07:10:37;9.83;;;6.10;;
3274;SDS011;1649;53.672;10.064;2023-03-24T07:13:06;8.93;;;5.90;;
3274;SDS011;1649;53.672;10.064;2023-03-24T07:15:33;7.80;;;5.27;;
3274;SDS011;1649;53.672;10.064;2023-03-24T07:17:58;7.83;;;4.90;;
3274;SDS011;1649;53.672;10.064;2023-03-24T07:20:24;7.60;;;4.40;;
3274;SDS011;1649;53.672;10.064;2023-03-24T07:22:54;7.63;;;4.80;;
3274;SDS011;1649;53.672;10.064;2023-03-24T07:25:20;7.63;;;4.43;;
3274;SDS011;1649;53.672;10.064;2023-03-24T07:27:46;9.00;;;5.20;;
3274;SDS011;1649;53.672;10.064;2023-03-24T07:30:12;8.13;;;4.60;;
3274;SDS011;1649;53.672;10.064;2023-03-24T07:32:38;7.33;;;4.60;;
3274;SDS011;1649;53.672;10.064;2023-03-24T07:35:08;6.60;;;3.40;;
3274;SDS011;1649;53.672;10.064;2023-03-24T07:37:36;8.13;;;4.03;;
3274;SDS011;1649;53.672;10.064;2023-03-24T07:40:02;5.70;;;3.17;;
3274;SDS011;1649;53.672;10.064;2023-03-24T07:42:35;5.30;;;3.20;;
3274;SDS011;1649;53.672;10.064;2023-03-24T07:45:06;6.40;;;3.50;;
3274;SDS011;1649;53.672;10.064;2023-03-24T07:47:33;7.53;;;3.70;;
3274;SDS011;1649;53.672;10.064;2023-03-24T07:49:58;6.27;;;3.87;;
3274;SDS011;1649;53.672;10.064;2023-03-24T07:52:24;6.33;;;3.20;;
3274;SDS011;1649;53.672;10.064;2023-03-24T07:54:49;5.30;;;2.47;;
3274;SDS011;1649;53.672;10.064;2023-03-24T07:57:15;7.43;;;2.50;;
3274;SDS011;1649;53.672;10.064;2023-03-24T07:59:41;9.93;;;3.07;;
3274;SDS011;1649;53.672;10.064;2023-03-24T08:02:11;6.50;;;2.30;;
3274;SDS011;1649;53.672;10.064;2023-03-24T08:04:44;6.00;;;2.40;;
3274;SDS011;1649;53.672;10.064;2023-03-24T08:07:10;8.50;;;2.33;;
3274;SDS011;1649;53.672;10.064;2023-03-24T08:09:37;4.70;;;2.30;;
3274;SDS011;1649;53.672;10.064;2023-03-24T08:12:04;13.03;;;1.97;;
3274;SDS011;1649;53.672;10.064;2023-03-24T08:14:29;12.50;;;3.03;;
3274;SDS011;1649;53.672;10.064;2023-03-24T08:16:55;9.53;;;2.40;;
3274;SDS011;1649;53.672;10.064;2023-03-24T08:19:21;9.97;;;2.13;;
3274;SDS011;1649;53.672;10.064;2023-03-24T08:21:46;9.20;;;2.10;;
3274;SDS011;1649;53.672;10.064;2023-03-24T08:24:12;9.30;;;2.37;;
3274;SDS011;1649;53.672;10.064;2023-03-24T08:26:37;8.97;;;3.10;;
3274;SDS011;1649;53.672;10.064;2023-03-24T08:29:04;5.60;;;2.07;;
3274;SDS011;1649;53.672;10.064;2023-03-24T08:31:34;7.97;;;2.00;;
3274;SDS011;1649;53.672;10.064;2023-03-24T08:34:01;5.80;;;1.80;;
3274;SDS011;1649;53.672;10.064;2023-03-24T08:36:28;7.17;;;1.60;;
3274;SDS011;1649;53.672;10.064;2023-03-24T08:38:54;6.00;;;1.90;;
3274;SDS011;1649;53.672;10.064;2023-03-24T08:41:20;8.57;;;2.03;;
3274;SDS011;1649;53.672;10.064;2023-03-24T08:43:58;8.27;;;2.00;;
3274;SDS011;1649;53.672;10.064;2023-03-24T08:46:28;5.50;;;1.53;;
3274;SDS011;1649;53.672;10.064;2023-03-24T08:48:55;9.20;;;2.13;;
3274;SDS011;1649;53.672;10.064;2023-03-24T08:51:21;6.53;;;1.73;;
3274;SDS011;1649;53.672;10.064;2023-03-24T08:53:47;10.23;;;2.30;;
3274;SDS011;1649;53.672;10.064;2023-03-24T08:56:12;8.97;;;2.10;;
3274;SDS011;1649;53.672;10.064;2023-03-24T08:58:38;7.60;;;2.13;;
3274;SDS011;1649;53.672;10.064;2023-03-24T09:01:04;11.83;;;2.10;;
3274;SDS011;1649;53.672;10.064;2023-03-24T09:03:30;10.00;;;2.07;;
3274;SDS011;1649;53.672;10.064;2023-03-24T09:05:56;7.43;;;2.53;;
3274;SDS011;1649;53.672;10.064;2023-03-24T09:08:22;10.73;;;2.33;;
3274;SDS011;1649;53.672;10.064;2023-03-24T09:10:47;8.67;;;1.90;;
3274;SDS011;1649;53.672;10.064;2023-03-24T09:13:14;8.83;;;2.27;;
3274;SDS011;1649;53.672;10.064;2023-03-24T09:15:44;7.40;;;1.70;;
3274;SDS011;1649;53.672;10.064;2023-03-24T09:18:11;7.17;;;1.90;;
3274;SDS011;1649;53.672;10.064;2023-03-24T09:20:37;9.60;;;1.80;;
3274;SDS011;1649;53.672;10.064;2023-03-24T09:23:02;9.33;;;1.90;;
3274;SDS011;1649;53.672;10.064;2023-03-24T09:25:27;7.57;;;2.00;;
3274;SDS011;1649;53.672;10.064;2023-03-24T09:27:53;6.97;;;2.10;;
3274;SDS011;1649;53.672;10.064;2023-03-24T09:30:20;10.90;;;2.57;;
3274;SDS011;1649;53.672;10.064;2023-03-24T09:32:46;8.47;;;2.10;;
3274;SDS011;1649;53.672;10.064;2023-03-24T09:35:11;13.37;;;2.33;;
3274;SDS011;1649;53.672;10.064;2023-03-24T09:37:37;6.83;;;2.00;;
3274;SDS011;1649;53.672;10.064;2023-03-24T09:40:03;11.93;;;2.33;;
3274;SDS011;1649;53.672;10.064;2023-03-24T09:42:31;7.57;;;2.00;;
3274;SDS011;1649;53.672;10.064;2023-03-24T09:45:02;9.10;;;2.33;;
3274;SDS011;1649;53.672;10.064;2023-03-24T09:50:39;9.90;;;1.97;;
3274;SDS011;1649;53.672;10.064;2023-03-24T09:53:19;12.40;;;2.27;;
3274;SDS011;1649;53.672;10.064;2023-03-24T09:55:49;10.13;;;2.33;;
3274;SDS011;1649;53.672;10.064;2023-03-24T09:58:14;8.93;;;2.33;;
3274;SDS011;1649;53.672;10.064;2023-03-24T10:00:41;8.50;;;2.30;;
3274;SDS011;1649;53.672;10.064;2023-03-24T10:03:12;12.17;;;2.23;;
3274;SDS011;1649;53.672;10.064;2023-03-24T10:05:44;9.10;;;2.30;;
3274;SDS011;1649;53.672;10.064;2023-03-24T10:14:00;10.30;;;2.47;;
3274;SDS011;1649;53.672;10.064;2023-03-24T10:16:46;11.93;;;2.90;;
3274;SDS011;1649;53.672;10.064;2023-03-24T10:22:18;9.07;;;1.83;;
3274;SDS011;1649;53.672;10.064;2023-03-24T10:25:25;13.57;;;2.50;;
3274;SDS011;1649;53.672;10.064;2023-03-24T10:28:20;10.80;;;2.03;;
3274;SDS011;1649;53.672;10.064;2023-03-24T10:30:50;8.90;;;1.87;;
3274;SDS011;1649;53.672;10.064;2023-03-24T10:33:19;10.30;;;2.47;;
3274;SDS011;1649;53.672;10.064;2023-03-24T10:38:47;11.43;;;2.07;;
3274;SDS011;1649;53.672;10.064;2023-03-24T10:41:23;7.80;;;2.00;;
3274;SDS011;1649;53.672;10.064;2023-03-24T10:43:51;9.57;;;2.30;;
3274;SDS011;1649;53.672;10.064;2023-03-24T10:46:20;7.40;;;1.90;;
3274;SDS011;1649;53.672;10.064;2023-03-24T10:48:49;11.23;;;2.10;;
3274;SDS011;1649;53.672;10.064;2023-03-24T10:51:21;7.47;;;2.10;;
3274;SDS011;1649;53.672;10.064;2023-03-24T10:53:50;11.47;;;2.20;;
3274;SDS011;1649;53.672;10.064;2023-03-24T10:56:40;10.30;;;1.93;;
3274;SDS011;1649;53.672;10.064;2023-03-24T11:01:54;9.37;;;2.10;;
3274;SDS011;1649;53.672;10.064;2023-03-24T11:04:39;7.87;;;1.87;;
3274;SDS011;1649;53.672;10.064;2023-03-24T11:07:15;6.60;;;2.10;;
3274;SDS011;1649;53.672;10.064;2023-03-24T11:09:55;6.87;;;1.90;;
3274;SDS011;1649;53.672;10.064;2023-03-24T11:12:26;10.73;;;2.17;;
3274;SDS011;1649;53.672;10.064;2023-03-24T11:17:45;6.90;;;1.57;;
3274;SDS011;1649;53.672;10.064;2023-03-24T11:22:53;7.63;;;1.47;;
3274;SDS011;1649;53.672;10.064;2023-03-24T11:25:23;8.83;;;2.37;;
3274;SDS011;1649;53.672;10.064;2023-03-24T11:27:51;7.97;;;1.97;;
3274;SDS011;1649;53.672;10.064;2023-03-24T11:30:21;10.10;;;2.00;;
3274;SDS011;1649;53.672;10.064;2023-03-24T11:32:47;6.23;;;1.70;;
3274;SDS011;1649;53.672;10.064;2023-03-24T11:35:15;8.50;;;1.97;;
3274;SDS011;1649;53.672;10.064;2023-03-24T11:37:42;9.37;;;1.87;;
3274;SDS011;1649;53.672;10.064;2023-03-24T11:42:45;9.50;;;1.90;;
3274;SDS011;1649;53.672;10.064;2023-03-24T11:45:25;10.47;;;2.60;;
3274;SDS011;1649;53.672;10.064;2023-03-24T11:47:55;13.73;;;2.07;;
3274;SDS011;1649;53.672;10.064;2023-03-24T11:50:29;9.40;;;2.00;;
3274;SDS011;1649;53.672;10.064;2023-03-24T11:53:02;8.00;;;2.25;;
3274;SDS011;1649;53.672;10.064;2023-03-24T12:03:51;10.70;;;2.17;;
3274;SDS011;1649;53.672;10.064;2023-03-24T12:09:19;7.20;;;1.77;;
3274;SDS011;1649;53.672;10.064;2023-03-24T12:15:08;7.73;;;1.60;;
3274;SDS011;1649;53.672;10.064;2023-03-24T12:17:39;10.13;;;2.30;;
3274;SDS011;1649;53.672;10.064;2023-03-24T12:23:00;8.87;;;2.10;;
3274;SDS011;1649;53.672;10.064;2023-03-24T12:26:03;6.80;;;1.83;;
3274;SDS011;1649;53.672;10.064;2023-03-24T12:31:30;8.70;;;2.07;;
3274;SDS011;1649;53.672;10.064;2023-03-24T12:34:22;7.90;;;2.00;;
3274;SDS011;1649;53.672;10.064;2023-03-24T12:46:22;9.50;;;2.00;;
3274;SDS011;1649;53.672;10.064;2023-03-24T12:49:09;10.50;;;2.20;;
3274;SDS011;1649;53.672;10.064;2023-03-24T12:54:20;8.70;;;2.20;;
3274;SDS011;1649;53.672;10.064;2023-03-24T12:57:16;8.40;;;2.17;;
3274;SDS011;1649;53.672;10.064;2023-03-24T12:59:45;16.37;;;2.53;;
3274;SDS011;1649;53.672;10.064;2023-03-24T13:02:29;12.73;;;2.13;;
3274;SDS011;1649;53.672;10.064;2023-03-24T13:04:58;7.63;;;1.93;;
3274;SDS011;1649;53.672;10.064;2023-03-24T13:07:29;7.40;;;2.17;;
3274;SDS011;1649;53.672;10.064;2023-03-24T13:10:12;7.00;;;1.83;;
3274;SDS011;1649;53.672;10.064;2023-03-24T13:12:39;7.17;;;2.20;;
3274;SDS011;1649;53.672;10.064;2023-03-24T13:18:23;8.37;;;1.90;;
3274;SDS011;1649;53.672;10.064;2023-03-24T13:21:11;9.40;;;2.27;;
3274;SDS011;1649;53.672;10.064;2023-03-24T13:29:06;9.47;;;2.13;;
3274;SDS011;1649;53.672;10.064;2023-03-24T13:37:45;8.03;;;2.03;;
3274;SDS011;1649;53.672;10.064;2023-03-24T13:40:20;10.17;;;2.00;;
3274;SDS011;1649;53.672;10.064;2023-03-24T13:42:51;8.63;;;1.67;;
3274;SDS011;1649;53.672;10.064;2023-03-24T13:48:04;7.47;;;1.63;;
3274;SDS011;1649;53.672;10.064;2023-03-24T13:50:33;8.77;;;1.90;;
3274;SDS011;1649;53.672;10.064;2023-03-24T13:53:12;6.23;;;1.43;;
3274;SDS011;1649;53.672;10.064;2023-03-24T13:55:39;7.90;;;1.73;;
3274;SDS011;1649;53.672;10.064;2023-03-24T13:58:20;8.37;;;1.60;;
3274;SDS011;1649;53.672;10.064;2023-03-24T14:03:45;6.37;;;1.80;;
3274;SDS011;1649;53.672;10.064;2023-03-24T14:06:42;7.37;;;1.80;;
3274;SDS011;1649;53.672;10.064;2023-03-24T14:09:28;8.13;;;1.63;;
3274;SDS011;1649;53.672;10.064;2023-03-24T14:14:27;4.90;;;1.30;;
3274;SDS011;1649;53.672;10.064;2023-03-24T14:19:40;8.23;;;1.57;;
3274;SDS011;1649;53.672;10.064;2023-03-24T14:22:41;6.90;;;1.90;;
3274;SDS011;1649;53.672;10.064;2023-03-24T14:27:44;6.17;;;1.60;;
3274;SDS011;1649;53.672;10.064;2023-03-24T14:30:25;7.30;;;1.50;;
3274;SDS011;1649;53.672;10.064;2023-03-24T14:32:55;6.37;;;1.80;;
3274;SDS011;1649;53.672;10.064;2023-03-24T14:38:04;10.37;;;1.97;;
3274;SDS011;1649;53.672;10.064;2023-03-24T14:40:45;11.67;;;2.50;;
3274;SDS011;1649;53.672;10.064;2023-03-24T14:52:08;8.00;;;1.80;;
3274;SDS011;1649;53.672;10.064;2023-03-24T14:54:47;5.40;;;1.47;;
3274;SDS011;1649;53.672;10.064;2023-03-24T14:57:20;6.83;;;1.60;;
3274;SDS011;1649;53.672;10.064;2023-03-24T15:02:54;10.50;;;1.73;;
3274;SDS011;1649;53.672;10.064;2023-03-24T15:10:24;9.90;;;1.90;;
3274;SDS011;1649;53.672;10.064;2023-03-24T15:12:49;8.20;;;1.43;;
3274;SDS011;1649;53.672;10.064;2023-03-24T15:15:16;13.70;;;2.43;;
3274;SDS011;1649;53.672;10.064;2023-03-24T15:17:43;5.03;;;1.50;;
3274;SDS011;1649;53.672;10.064;2023-03-24T15:23:10;7.33;;;1.80;;
3274;SDS011;1649;53.672;10.064;2023-03-24T15:25:41;7.77;;;1.60;;
3274;SDS011;1649;53.672;10.064;2023-03-24T15:28:20;7.83;;;1.60;;
3274;SDS011;1649;53.672;10.064;2023-03-24T15:30:50;9.80;;;1.70;;
3274;SDS011;1649;53.672;10.064;2023-03-24T15:33:16;8.60;;;1.57;;
3274;SDS011;1649;53.672;10.064;2023-03-24T15:35:42;8.87;;;1.70;;
3274;SDS011;1649;53.672;10.064;2023-03-24T15:38:19;10.40;;;2.17;;
3274;SDS011;1649;53.672;10.064;2023-03-24T15:41:01;11.90;;;2.13;;
3274;SDS011;1649;53.672;10.064;2023-03-24T15:43:45;7.33;;;1.53;;
3274;SDS011;1649;53.672;10.064;2023-03-24T15:46:25;6.87;;;1.40;;
3274;SDS011;1649;53.672;10.064;2023-03-24T15:48:52;11.17;;;1.77;;
3274;SDS011;1649;53.672;10.064;2023-03-24T15:51:44;7.40;;;1.50;;
3274;SDS011;1649;53.672;10.064;2023-03-24T15:54:25;5.27;;;1.10;;
3274;SDS011;1649;53.672;10.064;2023-03-24T15:57:00;7.30;;;1.40;;
3274;SDS011;1649;53.672;10.064;2023-03-24T16:00:03;7.30;;;1.70;;
3274;SDS011;1649;53.672;10.064;2023-03-24T16:02:46;5.97;;;1.53;;
3274;SDS011;1649;53.672;10.064;2023-03-24T16:05:22;8.63;;;1.90;;
3274;SDS011;1649;53.672;10.064;2023-03-24T16:07:54;7.07;;;1.60;;
3274;SDS011;1649;53.672;10.064;2023-03-24T16:10:26;9.03;;;1.70;;
3274;SDS011;1649;53.672;10.064;2023-03-24T16:13:14;9.90;;;1.80;;
3274;SDS011;1649;53.672;10.064;2023-03-24T16:15:45;9.37;;;1.87;;
3274;SDS011;1649;53.672;10.064;2023-03-24T16:18:36;8.03;;;1.70;;
3274;SDS011;1649;53.672;10.064;2023-03-24T16:21:13;9.23;;;1.63;;
3274;SDS011;1649;53.672;10.064;2023-03-24T16:23:43;8.93;;;2.53;;
3274;SDS011;1649;53.672;10.064;2023-03-24T16:26:17;8.77;;;1.80;;
3274;SDS011;1649;53.672;10.064;2023-03-24T16:28:50;8.40;;;2.00;;
3274;SDS011;1649;53.672;10.064;2023-03-24T16:33:50;7.07;;;1.97;;
3274;SDS011;1649;53.672;10.064;2023-03-24T16:36:16;7.23;;;1.70;;
3274;SDS011;1649;53.672;10.064;2023-03-24T16:38:43;9.07;;;1.70;;
3274;SDS011;1649;53.672;10.064;2023-03-24T16:41:09;8.37;;;1.80;;
3274;SDS011;1649;53.672;10.064;2023-03-24T16:43:37;8.40;;;2.00;;
3274;SDS011;1649;53.672;10.064;2023-03-24T16:46:03;14.40;;;2.77;;
3274;SDS011;1649;53.672;10.064;2023-03-24T16:48:30;7.30;;;2.00;;
3274;SDS011;1649;53.672;10.064;2023-03-24T16:50:56;8.20;;;1.97;;
3274;SDS011;1649;53.672;10.064;2023-03-24T16:53:22;8.07;;;1.83;;
3274;SDS011;1649;53.672;10.064;2023-03-24T16:55:47;6.87;;;2.03;;
3274;SDS011;1649;53.672;10.064;2023-03-24T16:58:14;9.73;;;2.03;;
3274;SDS011;1649;53.672;10.064;2023-03-24T17:00:41;9.23;;;2.20;;
3274;SDS011;1649;53.672;10.064;2023-03-24T17:03:13;7.33;;;1.77;;
3274;SDS011;1649;53.672;10.064;2023-03-24T17:05:41;6.80;;;2.03;;
3274;SDS011;1649;53.672;10.064;2023-03-24T17:08:13;6.70;;;2.03;;
3274;SDS011;1649;53.672;10.064;2023-03-24T17:10:40;6.93;;;2.37;;
3274;SDS011;1649;53.672;10.064;2023-03-24T17:13:08;7.37;;;2.00;;
3274;SDS011;1649;53.672;10.064;2023-03-24T17:15:40;5.90;;;2.00;;
3274;SDS011;1649;53.672;10.064;2023-03-24T17:18:05;8.03;;;2.30;;
3274;SDS011;1649;53.672;10.064;2023-03-24T17:20:32;10.73;;;2.87;;
3274;SDS011;1649;53.672;10.064;2023-03-24T17:22:59;9.40;;;2.40;;
3274;SDS011;1649;53.672;10.064;2023-03-24T17:25:25;10.10;;;2.40;;
3274;SDS011;1649;53.672;10.064;2023-03-24T17:27:53;8.03;;;2.20;;
3274;SDS011;1649;53.672;10.064;2023-03-24T17:30:21;9.73;;;2.30;;
3274;SDS011;1649;53.672;10.064;2023-03-24T17:32:47;7.13;;;2.33;;
3274;SDS011;1649;53.672;10.064;2023-03-24T17:35:14;9.47;;;3.00;;
3274;SDS011;1649;53.672;10.064;2023-03-24T17:37:42;10.10;;;3.10;;
3274;SDS011;1649;53.672;10.064;2023-03-24T17:40:12;7.00;;;2.10;;
3274;SDS011;1649;53.672;10.064;2023-03-24T17:42:39;12.17;;;2.63;;
3274;SDS011;1649;53.672;10.064;2023-03-24T17:45:06;10.77;;;2.40;;
3274;SDS011;1649;53.672;10.064;2023-03-24T17:47:34;10.23;;;2.50;;
3274;SDS011;1649;53.672;10.064;2023-03-24T17:49:59;9.77;;;2.43;;
3274;SDS011;1649;53.672;10.064;2023-03-24T17:52:25;7.57;;;1.93;;
3274;SDS011;1649;53.672;10.064;2023-03-24T17:54:51;10.67;;;2.90;;